createdAt,value
2023-05-19T00:00:12.692Z,12.68
2023-05-19T00:02:33.928Z,12.58
2023-05-19T00:04:33.828Z,12.57
2023-05-19T00:06:34.973Z,12.59
2023-05-19T00:08:34.703Z,12.51
2023-05-19T00:10:33.282Z,12.42
2023-05-19T00:12:33.884Z,12.39
2023-05-19T00:14:33.141Z,12.39
2023-05-19T00:16:34.178Z,12.38
2023-05-19T00:18:36.130Z,12.34
2023-05-19T00:20:38.785Z,12.26
2023-05-19T00:22:37.537Z,12.29
2023-05-19T00:24:52.839Z,12.27
2023-05-19T00:26:49.442Z,12.17
2023-05-19T00:28:56.788Z,12.07
2023-05-19T00:30:58.782Z,12.05
2023-05-19T00:32:57.224Z,12.09
2023-05-19T00:34:57.655Z,12.08
2023-05-19T00:36:58.978Z,12.04
2023-05-19T00:38:55.170Z,12.05
2023-05-19T00:40:50.611Z,12.08
2023-05-19T00:42:46.702Z,12.06
2023-05-19T00:44:46.952Z,12.09
2023-05-19T00:46:42.776Z,12.12
2023-05-19T00:48:38.200Z,12.04
2023-05-19T00:50:53.470Z,12.01
2023-05-19T00:53:11.524Z,12.00
2023-05-19T00:55:18.066Z,11.99
2023-05-19T00:57:18.094Z,11.91
2023-05-19T01:04:59.759Z,11.90
2023-05-19T01:05:10.553Z,11.65
2023-05-19T01:07:13.260Z,11.61
2023-05-19T01:15:35.010Z,11.47
2023-05-19T01:21:23.118Z,11.35
2023-05-19T01:23:34.092Z,11.37
2023-05-19T01:25:49.356Z,11.36
2023-05-19T01:28:19.119Z,11.30
2023-05-19T01:30:33.206Z,11.26
2023-05-19T01:32:30.167Z,11.26
2023-05-19T01:34:34.074Z,11.22
2023-05-19T01:36:37.608Z,11.23
2023-05-19T01:38:33.445Z,11.22
2023-05-19T01:40:31.745Z,11.17
2023-05-19T01:42:42.641Z,11.12
2023-05-19T01:44:42.764Z,11.15
2023-05-19T01:46:42.684Z,11.16
2023-05-19T01:48:38.747Z,11.17
2023-05-19T01:50:34.857Z,11.12
2023-05-19T01:52:31.457Z,11.08
2023-05-19T01:54:32.927Z,11.08
2023-05-19T01:56:40.098Z,11.12
2023-05-19T01:58:46.877Z,11.06
2023-05-19T02:00:54.304Z,11.11
2023-05-19T02:03:03.947Z,11.08
2023-05-19T02:05:03.302Z,11.02
2023-05-19T02:07:04.258Z,11.00
2023-05-19T02:09:05.284Z,11.00
2023-05-19T02:11:05.488Z,10.95
2023-05-19T02:13:04.179Z,10.90
2023-05-19T02:15:06.787Z,10.86
2023-05-19T02:17:01.055Z,10.81
2023-05-19T02:18:59.666Z,10.75
2023-05-19T02:20:55.176Z,10.71
2023-05-19T02:22:50.841Z,10.67
2023-05-19T02:24:47.886Z,10.64
2023-05-19T02:26:43.008Z,10.64
2023-05-19T02:28:39.366Z,10.62
2023-05-19T02:30:34.621Z,10.67
2023-05-19T02:32:30.167Z,10.65
2023-05-19T02:34:27.933Z,10.65
2023-05-19T02:36:23.363Z,10.68
2023-05-19T02:38:18.857Z,10.69
2023-05-19T02:40:14.913Z,10.66
2023-05-19T02:42:10.469Z,10.65
2023-05-19T02:44:06.496Z,10.55
2023-05-19T02:46:01.864Z,10.53
2023-05-19T02:47:57.598Z,10.53
2023-05-19T02:49:55.838Z,10.54
2023-05-19T02:51:51.539Z,10.51
2023-05-19T02:53:46.921Z,10.51
2023-05-19T02:55:42.628Z,10.57
2023-05-19T02:57:38.238Z,10.56
2023-05-19T02:59:34.077Z,10.52
2023-05-19T03:01:29.572Z,10.50
2023-05-19T03:03:26.177Z,10.49
2023-05-19T03:05:24.316Z,10.55
2023-05-19T03:07:25.208Z,10.55
2023-05-19T03:09:20.821Z,10.49
2023-05-19T03:11:16.723Z,10.40
2023-05-19T03:13:12.196Z,10.37
2023-05-19T03:15:09.137Z,10.37
2023-05-19T03:17:04.536Z,10.43
2023-05-19T03:19:00.370Z,10.41
2023-05-19T03:20:58.090Z,10.43
2023-05-19T03:22:53.709Z,10.41
2023-05-19T03:24:51.190Z,10.43
2023-05-19T03:26:46.669Z,10.45
2023-05-19T03:28:41.730Z,10.41
2023-05-19T03:30:37.388Z,10.36
2023-05-19T03:32:33.005Z,10.33
2023-05-19T03:34:28.528Z,10.34
2023-05-19T03:36:26.398Z,10.28
2023-05-19T03:38:21.749Z,10.22
2023-05-19T03:40:18.957Z,10.24
2023-05-19T03:42:14.403Z,10.23
2023-05-19T03:44:09.506Z,10.21
2023-05-19T03:46:05.083Z,10.18
2023-05-19T03:48:00.304Z,10.14
2023-05-19T03:49:56.199Z,10.09
2023-05-19T03:51:53.872Z,10.09
2023-05-19T03:53:49.271Z,10.12
2023-05-19T03:55:44.959Z,10.11
2023-05-19T03:57:41.421Z,10.06
2023-05-19T03:59:37.338Z,10.06
2023-05-19T04:01:32.753Z,10.06
2023-05-19T04:03:28.680Z,10.11
2023-05-19T04:05:24.263Z,10.16
2023-05-19T04:07:21.952Z,10.18
2023-05-19T04:09:19.569Z,10.18
2023-05-19T04:11:15.278Z,10.21
2023-05-19T04:13:11.688Z,10.27
2023-05-19T04:15:07.712Z,10.25
2023-05-19T04:17:03.208Z,10.22
2023-05-19T04:18:58.455Z,10.26
2023-05-19T04:20:54.021Z,10.25
2023-05-19T04:22:51.649Z,10.28
2023-05-19T04:24:47.776Z,10.31
2023-05-19T04:26:46.236Z,10.37
2023-05-19T04:28:42.539Z,10.41
2023-05-19T04:30:38.764Z,10.42
2023-05-19T04:32:34.164Z,10.45
2023-05-19T04:34:29.357Z,10.47
2023-05-19T04:36:24.746Z,10.50
2023-05-19T04:38:22.416Z,10.54
2023-05-19T04:40:17.798Z,10.52
2023-05-19T04:42:13.432Z,10.54
2023-05-19T04:44:09.136Z,10.55
2023-05-19T04:46:06.276Z,10.55
2023-05-19T04:48:02.120Z,10.57
2023-05-19T04:49:58.242Z,10.59
2023-05-19T04:51:55.896Z,10.63
2023-05-19T04:53:54.355Z,10.67
2023-05-19T04:55:50.365Z,10.67
2023-05-19T04:57:45.444Z,10.66
2023-05-19T04:59:40.877Z,10.68
2023-05-19T05:01:40.305Z,10.63
2023-05-19T05:03:35.990Z,10.66
2023-05-19T05:05:31.226Z,10.66
2023-05-19T05:07:27.149Z,10.68
2023-05-19T05:09:24.764Z,10.70
2023-05-19T05:11:20.779Z,10.70
2023-05-19T05:13:16.516Z,10.71
2023-05-19T05:15:13.680Z,10.72
2023-05-19T05:17:09.784Z,10.70
2023-05-19T05:19:06.649Z,10.71
2023-05-19T05:21:03.039Z,10.71
2023-05-19T05:22:59.419Z,10.72
2023-05-19T05:24:58.126Z,10.74
2023-05-19T05:26:54.539Z,10.75
2023-05-19T05:28:49.947Z,10.79
2023-05-19T05:30:46.470Z,10.80
2023-05-19T05:32:42.061Z,10.83
2023-05-19T05:34:40.021Z,10.83
2023-05-19T05:36:37.214Z,10.82
2023-05-19T05:38:34.550Z,10.82
2023-05-19T05:40:32.654Z,10.81
2023-05-19T05:42:29.711Z,10.83
2023-05-19T05:44:24.961Z,10.85
2023-05-19T05:46:21.719Z,10.88
2023-05-19T05:48:17.634Z,10.90
2023-05-19T05:50:14.385Z,10.90
2023-05-19T05:52:12.655Z,10.90
2023-05-19T05:54:09.865Z,10.95
2023-05-19T05:56:08.466Z,10.98
2023-05-19T05:58:04.483Z,11.00
2023-05-19T05:59:59.899Z,11.02
2023-05-19T06:01:55.394Z,11.02
2023-05-19T06:03:50.644Z,11.08
2023-05-19T06:05:46.120Z,11.09
2023-05-19T06:07:41.455Z,11.13
2023-05-19T06:09:36.964Z,11.13
2023-05-19T06:11:35.602Z,11.16
2023-05-19T06:13:31.319Z,11.16
2023-05-19T06:15:26.804Z,11.21
2023-05-19T06:17:22.317Z,11.19
2023-05-19T06:19:17.438Z,11.20
2023-05-19T06:21:13.684Z,11.17
2023-05-19T06:23:08.979Z,11.17
2023-05-19T06:25:04.558Z,11.19
2023-05-19T06:27:02.150Z,11.24
2023-05-19T06:28:57.646Z,11.23
2023-05-19T06:30:52.719Z,11.24
2023-05-19T06:32:48.124Z,11.29
2023-05-19T06:34:43.248Z,11.29
2023-05-19T06:36:38.647Z,11.34
2023-05-19T06:38:33.803Z,11.37
2023-05-19T06:40:29.511Z,11.41
2023-05-19T06:42:27.339Z,11.47
2023-05-19T06:44:22.787Z,11.50
2023-05-19T06:46:18.017Z,11.55
2023-05-19T06:48:13.575Z,11.58
2023-05-19T06:50:09.307Z,11.60
2023-05-19T06:52:04.717Z,11.63
2023-05-19T06:53:59.862Z,11.67
2023-05-19T06:55:59.909Z,11.71
2023-05-19T06:57:58.266Z,11.74
2023-05-19T06:59:53.858Z,11.73
2023-05-19T07:01:51.470Z,11.75
2023-05-19T07:03:47.024Z,11.77
2023-05-19T07:05:42.360Z,11.72
2023-05-19T07:07:37.675Z,11.75
2023-05-19T07:09:32.798Z,11.81
2023-05-19T07:11:29.760Z,11.87
2023-05-19T07:13:28.859Z,11.90
2023-05-19T07:15:24.759Z,11.99
2023-05-19T07:17:20.641Z,12.01
2023-05-19T07:19:16.327Z,12.13
2023-05-19T07:21:11.591Z,12.09
2023-05-19T07:23:07.110Z,12.18
2023-05-19T07:25:02.421Z,12.23
2023-05-19T07:26:58.266Z,12.28
2023-05-19T07:28:56.342Z,12.37
2023-05-19T07:30:53.293Z,12.48
2023-05-19T07:32:48.538Z,12.55
2023-05-19T07:34:44.275Z,12.61
2023-05-19T07:36:39.562Z,12.63
2023-05-19T07:38:36.276Z,12.69
2023-05-19T07:40:32.001Z,12.69
2023-05-19T07:42:28.071Z,12.77
2023-05-19T07:44:27.282Z,12.80
2023-05-19T07:46:23.693Z,12.85
2023-05-19T07:48:19.217Z,12.90
2023-05-19T07:50:14.923Z,12.90
2023-05-19T07:52:10.516Z,12.93
2023-05-19T07:54:08.489Z,12.96
2023-05-19T07:56:03.700Z,13.05
2023-05-19T07:57:59.140Z,13.07
2023-05-19T07:59:56.819Z,13.10
2023-05-19T08:01:52.400Z,13.19
2023-05-19T08:03:47.908Z,13.20
2023-05-19T08:05:43.464Z,13.21
2023-05-19T08:07:38.618Z,13.34
2023-05-19T08:09:34.333Z,13.39
2023-05-19T08:11:29.563Z,13.47
2023-05-19T08:13:25.048Z,13.66
2023-05-19T08:15:23.085Z,13.79
2023-05-19T08:17:18.559Z,13.77
2023-05-19T08:19:28.747Z,13.76
2023-05-19T08:21:30.210Z,13.85
2023-05-19T08:23:42.179Z,13.96
2023-05-19T08:25:42.323Z,14.04
2023-05-19T08:27:41.162Z,14.16
2023-05-19T08:43:14.662Z,14.78
2023-05-19T08:45:46.751Z,14.99
2023-05-19T08:47:47.342Z,15.13
2023-05-19T08:49:48.542Z,15.13
2023-05-19T08:51:53.088Z,15.17
2023-05-19T08:53:57.942Z,15.31
2023-05-19T08:56:04.837Z,15.25
2023-05-19T08:58:01.305Z,15.33
2023-05-19T09:00:00.435Z,15.45
2023-05-19T09:01:58.198Z,15.50
2023-05-19T09:03:58.901Z,15.47
2023-05-19T09:05:58.283Z,15.40
2023-05-19T09:08:07.633Z,15.49
2023-05-19T09:10:09.437Z,15.57
2023-05-19T09:12:05.770Z,15.72
2023-05-19T09:14:01.440Z,15.83
2023-05-19T09:15:59.282Z,15.80
2023-05-19T09:17:55.492Z,15.86
2023-05-19T09:19:56.944Z,15.80
2023-05-19T09:22:03.668Z,15.81
2023-05-19T09:24:14.193Z,15.87
2023-05-19T09:26:11.620Z,15.76
2023-05-19T09:28:07.933Z,15.89
2023-05-19T09:30:11.173Z,16.04
2023-05-19T09:32:09.193Z,16.34
2023-05-19T09:34:37.526Z,16.60
2023-05-19T09:36:45.442Z,16.63
2023-05-19T09:38:50.308Z,16.78
2023-05-19T09:41:14.506Z,16.91
2023-05-19T09:43:31.822Z,16.97
2023-05-19T09:45:33.517Z,17.04
2023-05-19T09:47:29.337Z,17.18
2023-05-19T09:49:24.972Z,17.15
2023-05-19T09:51:21.507Z,17.20
2023-05-19T09:53:20.342Z,17.35
2023-05-19T09:55:16.363Z,17.45
2023-05-19T09:57:11.800Z,17.52
2023-05-19T09:59:07.924Z,17.58
2023-05-19T10:01:04.515Z,17.62
2023-05-19T10:03:02.212Z,17.73
2023-05-19T10:04:58.464Z,17.82
2023-05-19T10:06:56.160Z,17.94
2023-05-19T10:08:55.672Z,17.99
2023-05-19T10:10:51.435Z,18.03
2023-05-19T10:12:46.913Z,18.11
2023-05-19T10:14:44.076Z,18.16
2023-05-19T10:16:39.546Z,18.24
2023-05-19T10:18:38.383Z,18.29
2023-05-19T10:20:36.414Z,18.38
2023-05-19T10:22:31.905Z,18.29
2023-05-19T10:24:29.608Z,18.35
2023-05-19T10:26:26.546Z,18.27
2023-05-19T10:28:25.700Z,18.26
2023-05-19T10:30:26.684Z,18.27
2023-05-19T10:32:26.238Z,18.48
2023-05-19T10:34:40.965Z,18.40
2023-05-19T10:36:52.678Z,18.58
2023-05-19T10:38:53.723Z,18.60
2023-05-19T10:41:01.162Z,18.71
2023-05-19T10:43:08.281Z,18.67
2023-05-19T10:45:16.403Z,18.58
2023-05-19T10:47:12.685Z,18.46
2023-05-19T10:49:10.412Z,18.38
2023-05-19T10:51:25.271Z,18.39
2023-05-19T11:12:44.241Z,19.22
2023-05-19T11:14:41.308Z,19.22
2023-05-19T11:16:38.394Z,19.15
2023-05-19T11:18:35.635Z,18.97
2023-05-19T11:20:35.107Z,19.03
2023-05-19T11:22:32.325Z,18.97
2023-05-19T11:24:40.305Z,19.05
2023-05-19T11:26:56.776Z,19.00
2023-05-19T11:28:56.835Z,18.94
2023-05-19T11:30:52.789Z,19.03
2023-05-19T11:32:51.167Z,19.13
2023-05-19T11:34:48.727Z,19.25
2023-05-19T11:36:49.851Z,19.34
2023-05-19T11:39:08.869Z,19.30
2023-05-19T12:11:12.071Z,19.68
2023-05-19T12:38:09.197Z,20.50
2023-05-19T12:51:38.171Z,20.25
2023-05-19T13:08:09.980Z,20.91
2023-05-19T13:10:19.853Z,21.14
2023-05-19T13:13:01.575Z,21.32
2023-05-19T13:17:08.736Z,21.17
2023-05-19T13:37:09.934Z,21.32
2023-05-19T14:10:10.316Z,21.78
2023-05-19T14:15:24.337Z,21.81
2023-05-19T14:18:04.995Z,21.63
2023-05-19T14:20:29.463Z,21.69
2023-05-19T14:22:31.491Z,21.77
2023-05-19T14:24:26.944Z,21.75
2023-05-19T14:26:43.342Z,21.67
2023-05-19T14:28:39.632Z,21.48
2023-05-19T14:30:36.342Z,21.42
2023-05-19T14:32:34.995Z,21.35
2023-05-19T14:34:31.072Z,21.36
2023-05-19T14:36:26.688Z,21.31
2023-05-19T14:38:22.687Z,21.39
2023-05-19T14:40:18.572Z,21.63
2023-05-19T14:42:20.684Z,21.59
2023-05-19T14:44:27.079Z,21.63
2023-05-19T14:46:23.459Z,21.69
2023-05-19T14:51:44.147Z,21.49
2023-05-19T15:01:50.310Z,22.30
2023-05-19T15:07:39.446Z,22.19
2023-05-19T15:10:26.767Z,21.93
2023-05-19T15:12:30.594Z,22.12
2023-05-19T15:14:31.359Z,22.04
2023-05-19T15:16:36.756Z,22.15
2023-05-19T15:18:36.647Z,22.13
2023-05-19T15:20:37.238Z,22.14
2023-05-19T15:22:42.661Z,22.40
2023-05-19T15:50:07.375Z,21.58
2023-05-19T15:52:20.565Z,21.60
2023-05-19T15:54:25.413Z,21.55
2023-05-19T15:56:22.750Z,21.50
2023-05-19T15:58:19.066Z,21.45
2023-05-19T16:00:20.339Z,21.31
2023-05-19T16:11:33.225Z,21.72
2023-05-19T16:14:29.441Z,21.82
2023-05-19T16:16:57.870Z,21.80
2023-05-19T16:20:38.819Z,21.50
2023-05-19T16:23:19.131Z,21.13
2023-05-19T16:25:30.077Z,21.02
2023-05-19T16:27:59.868Z,21.03
2023-05-19T16:30:49.368Z,21.27
2023-05-19T16:35:40.165Z,21.69
2023-05-19T16:37:37.531Z,21.80
2023-05-19T16:39:38.787Z,21.90
2023-05-19T16:42:37.936Z,21.99
2023-05-19T16:44:40.950Z,21.76
2023-05-19T16:50:56.040Z,21.35
2023-05-19T16:53:11.798Z,21.36
2023-05-19T16:55:31.011Z,21.37
2023-05-19T16:57:28.967Z,21.32
2023-05-19T16:59:25.586Z,21.34
2023-05-19T17:01:21.499Z,21.09
2023-05-19T17:03:17.573Z,21.13
2023-05-19T17:10:10.257Z,21.06
2023-05-19T17:16:01.723Z,21.04
2023-05-19T17:18:12.602Z,20.96
2023-05-19T17:20:23.429Z,21.00
2023-05-19T17:22:28.762Z,20.97
2023-05-19T17:24:25.876Z,20.96
2023-05-19T17:26:21.743Z,21.05
2023-05-19T17:28:23.115Z,21.02
2023-05-19T17:30:34.876Z,20.92
2023-05-19T17:32:36.003Z,20.69
2023-05-19T17:34:31.741Z,20.51
2023-05-19T17:36:30.071Z,20.45
2023-05-19T17:38:25.209Z,20.43
2023-05-19T17:40:21.096Z,20.35
2023-05-19T17:42:18.580Z,20.25
2023-05-19T17:44:20.877Z,20.22
2023-05-19T17:46:20.786Z,20.13
2023-05-19T17:49:00.362Z,20.03
2023-05-19T17:54:25.839Z,20.00
2023-05-19T17:57:34.356Z,19.91
2023-05-19T17:59:55.750Z,19.79
2023-05-19T18:06:08.569Z,19.84
2023-05-19T18:08:13.717Z,19.72
2023-05-19T18:11:02.013Z,19.66
2023-05-19T18:14:04.201Z,19.77
2023-05-19T18:20:03.434Z,19.67
2023-05-19T18:22:26.757Z,19.57
2023-05-19T18:24:35.978Z,19.50
2023-05-19T18:26:38.406Z,19.35
2023-05-19T18:33:06.038Z,19.39
2023-05-19T18:38:54.693Z,19.07
2023-05-19T18:41:57.397Z,18.93
2023-05-19T18:44:39.015Z,18.98
2023-05-19T18:47:18.177Z,18.97
2023-05-19T18:49:29.979Z,18.89
2023-05-19T18:51:32.156Z,18.88
2023-05-19T18:53:27.925Z,18.71
2023-05-19T18:55:24.273Z,18.76
2023-05-19T18:57:20.074Z,18.66
2023-05-19T18:59:17.671Z,18.64
2023-05-19T19:01:16.877Z,18.64
2023-05-19T19:03:14.211Z,18.66
2023-05-19T19:05:11.128Z,18.65
2023-05-19T19:07:09.906Z,18.59
2023-05-19T19:09:06.288Z,18.62
2023-05-19T19:11:03.131Z,18.60
2023-05-19T19:13:00.132Z,18.56
2023-05-19T19:14:58.278Z,18.56
2023-05-19T19:16:58.350Z,18.56
2023-05-19T19:18:56.401Z,18.49
2023-05-19T19:20:52.685Z,18.50
2023-05-19T19:22:52.951Z,18.45
2023-05-19T19:24:50.712Z,18.40
2023-05-19T19:26:48.145Z,18.34
2023-05-19T19:28:44.693Z,18.34
2023-05-19T19:30:41.823Z,18.30
2023-05-19T19:32:40.327Z,18.27
2023-05-19T19:34:42.360Z,18.20
2023-05-19T19:36:39.393Z,18.14
2023-05-19T19:38:37.448Z,18.16
2023-05-19T19:40:35.335Z,18.21
2023-05-19T19:42:37.035Z,18.25
2023-05-19T19:44:33.345Z,18.26
2023-05-19T19:46:30.390Z,18.26
2023-05-19T19:48:33.716Z,18.22
2023-05-19T19:50:30.763Z,18.11
2023-05-19T19:52:26.820Z,17.97
2023-05-19T19:54:25.823Z,17.84
2023-05-19T19:56:24.133Z,17.85
2023-05-19T19:58:21.383Z,17.87
2023-05-19T20:00:18.351Z,17.91
2023-05-19T20:02:14.355Z,17.95
2023-05-19T20:04:19.366Z,18.00
2023-05-19T20:06:15.048Z,17.99
2023-05-19T20:08:11.061Z,17.95
2023-05-19T20:10:09.883Z,17.82
2023-05-19T20:12:05.849Z,17.81
2023-05-19T20:14:05.526Z,17.78
2023-05-19T20:16:39.022Z,17.81
2023-05-19T20:19:22.690Z,17.83
2023-05-19T20:26:21.958Z,17.72
2023-05-19T20:28:26.228Z,17.73
2023-05-19T20:30:53.751Z,17.67
2023-05-19T20:32:50.459Z,17.61
2023-05-19T20:34:46.082Z,17.47
2023-05-19T20:36:44.717Z,17.51
2023-05-19T20:38:40.693Z,17.42
2023-05-19T20:40:36.957Z,17.38
2023-05-19T20:42:34.312Z,17.28
2023-05-19T20:44:30.164Z,17.25
2023-05-19T20:46:25.699Z,17.20
2023-05-19T20:48:21.851Z,17.19
2023-05-19T20:50:37.110Z,17.16
2023-05-19T20:52:42.888Z,17.16
2023-05-19T20:54:56.302Z,17.13
2023-05-19T20:57:10.336Z,17.13
2023-05-19T20:59:29.641Z,17.06
2023-05-19T21:01:45.633Z,16.97
2023-05-19T21:03:59.944Z,16.89
2023-05-19T21:06:02.059Z,16.90
2023-05-19T21:08:01.709Z,16.94
2023-05-19T21:12:59.000Z,16.97
2023-05-19T21:21:59.609Z,16.80
2023-05-19T21:27:10.059Z,16.70
2023-05-19T21:29:11.624Z,16.69
2023-05-19T21:31:10.528Z,16.70
2023-05-19T21:33:14.740Z,16.65
2023-05-19T21:35:12.570Z,16.63
2023-05-19T21:37:33.863Z,16.61
2023-05-19T21:50:11.123Z,16.30
2023-05-19T21:52:11.308Z,16.18
2023-05-19T21:54:11.924Z,16.12
2023-05-19T21:56:10.367Z,16.07
2023-05-19T21:58:06.438Z,16.09
2023-05-19T22:00:02.340Z,16.06
2023-05-19T22:01:58.534Z,16.08
2023-05-19T22:03:55.584Z,16.06
2023-05-19T22:05:54.459Z,16.02
2023-05-19T22:07:52.630Z,15.95
2023-05-19T22:09:48.993Z,15.87
2023-05-19T22:11:44.537Z,15.82
2023-05-19T22:13:41.309Z,15.75
2023-05-19T22:15:36.894Z,15.69
2023-05-19T22:17:32.300Z,15.62
2023-05-19T22:19:28.013Z,15.58
2023-05-19T22:21:23.896Z,15.58
2023-05-19T22:23:22.710Z,15.51
2023-05-19T22:28:15.909Z,15.43
2023-05-19T22:30:19.990Z,15.37
2023-05-19T22:32:25.459Z,15.34
2023-05-19T22:34:20.760Z,15.31
2023-05-19T22:36:16.451Z,15.22
2023-05-19T22:38:11.974Z,15.20
2023-05-19T22:40:11.305Z,15.18
2023-05-19T22:42:07.477Z,15.15
2023-05-19T22:44:05.700Z,15.13
2023-05-19T22:46:00.944Z,15.07
2023-05-19T22:47:56.567Z,15.11
2023-05-19T22:49:54.826Z,15.02
2023-05-19T22:51:51.071Z,15.02
2023-05-19T22:53:46.831Z,14.95
2023-05-19T22:55:45.039Z,14.91
2023-05-19T22:57:40.198Z,14.90
2023-05-19T22:59:35.789Z,14.90
2023-05-19T23:01:31.116Z,14.89
2023-05-19T23:03:27.021Z,14.90
2023-05-19T23:05:25.676Z,14.91
2023-05-19T23:07:39.784Z,14.86
